createdAt,value
2018-01-15T00:01:32.996Z,102315.57
2018-01-15T00:04:00.619Z,102295.31
2018-01-15T00:06:28.132Z,102306.80
2018-01-15T00:08:55.753Z,102296.59
2018-01-15T00:11:23.268Z,102298.75
2018-01-15T00:13:50.808Z,102301.23
2018-01-15T00:16:18.335Z,102305.03
2018-01-15T00:18:45.881Z,102280.98
2018-01-15T00:21:13.404Z,102278.65
2018-01-15T00:23:40.916Z,102282.13
2018-01-15T00:26:08.440Z,102281.58
2018-01-15T00:28:35.996Z,102273.98
2018-01-15T00:31:03.572Z,102276.04
2018-01-15T00:33:31.095Z,102265.09
2018-01-15T00:35:58.613Z,102270.91
2018-01-15T00:38:26.169Z,102259.73
2018-01-15T00:40:53.784Z,102259.28
2018-01-15T00:43:21.396Z,102263.07
2018-01-15T00:45:48.904Z,102259.46
2018-01-15T00:48:16.440Z,102270.85
2018-01-15T00:50:43.957Z,102260.91
2018-01-15T00:53:11.484Z,102256.38
2018-01-15T00:55:39.089Z,102256.56
2018-01-15T00:58:06.623Z,102257.51
2018-01-15T01:00:34.214Z,102235.02
2018-01-15T01:03:01.723Z,102235.17
2018-01-15T01:05:29.256Z,102227.84
2018-01-15T01:07:56.772Z,102230.27
2018-01-15T01:10:24.347Z,102226.95
2018-01-15T01:12:51.860Z,102224.89
2018-01-15T01:15:19.368Z,102224.30
2018-01-15T01:17:46.888Z,102219.92
2018-01-15T01:20:14.468Z,102216.64
2018-01-15T01:22:41.984Z,102212.25
2018-01-15T01:25:09.591Z,102203.39
2018-01-15T01:27:37.172Z,102215.99
2018-01-15T01:30:04.712Z,102207.78
2018-01-15T01:32:32.289Z,102205.86
2018-01-15T01:34:59.814Z,102194.66
2018-01-15T01:37:27.336Z,102198.47
2018-01-15T01:39:54.975Z,102186.86
2018-01-15T01:42:22.497Z,102180.23
2018-01-15T01:44:50.039Z,102172.05
2018-01-15T01:47:17.592Z,102169.13
2018-01-15T01:49:45.124Z,102165.06
2018-01-15T01:52:12.636Z,102163.08
2018-01-15T01:54:40.153Z,102160.23
2018-01-15T01:57:07.779Z,102152.39
2018-01-15T01:59:35.291Z,102149.20
2018-01-15T02:02:02.801Z,102148.80
2018-01-15T02:04:30.344Z,102129.88
2018-01-15T02:06:57.852Z,102134.13
2018-01-15T02:09:25.468Z,102128.36
2018-01-15T02:11:53.028Z,102122.66
2018-01-15T02:14:20.560Z,102117.84
2018-01-15T02:16:48.088Z,102112.56
2018-01-15T02:19:15.614Z,102105.53
2018-01-15T02:21:43.132Z,102110.80
2018-01-15T02:24:10.660Z,102117.00
2018-01-15T02:26:38.264Z,102117.70
2018-01-15T02:29:05.854Z,102108.87
2018-01-15T02:31:33.381Z,102102.16
2018-01-15T02:34:00.903Z,102102.80
2018-01-15T02:36:28.422Z,102087.50
2018-01-15T02:38:56.008Z,102090.44
2018-01-15T02:41:23.538Z,102102.23
2018-01-15T02:43:51.057Z,102085.91
2018-01-15T02:46:18.607Z,102082.45
2018-01-15T02:48:46.123Z,102071.16
2018-01-15T02:51:13.632Z,102076.51
2018-01-15T02:53:41.220Z,102077.64
2018-01-15T02:56:08.737Z,102076.52
2018-01-15T02:58:36.256Z,102066.92
2018-01-15T03:01:03.764Z,102050.70
2018-01-15T03:03:31.285Z,102049.12
2018-01-15T03:05:58.804Z,102053.19
2018-01-15T03:08:26.396Z,102039.38
2018-01-15T03:10:53.923Z,102041.18
2018-01-15T03:13:21.530Z,102035.03
2018-01-15T03:15:49.060Z,102031.97
2018-01-15T03:18:16.636Z,102039.91
2018-01-15T03:20:44.162Z,102037.17
2018-01-15T03:23:11.693Z,102035.47
2018-01-15T03:25:39.228Z,102017.39
2018-01-15T03:28:06.772Z,102020.22
2018-01-15T03:30:34.336Z,102016.02
2018-01-15T03:33:01.861Z,102013.83
2018-01-15T03:35:29.394Z,102009.45
2018-01-15T03:37:56.993Z,102009.34
2018-01-15T03:40:24.553Z,102003.56
2018-01-15T03:42:52.067Z,102001.16
2018-01-15T03:45:19.580Z,101989.02
2018-01-15T03:47:47.166Z,101988.57
2018-01-15T03:50:14.681Z,101982.14
2018-01-15T03:52:42.217Z,101980.95
2018-01-15T03:55:09.744Z,101976.41
2018-01-15T03:57:37.268Z,101971.30
2018-01-15T04:00:04.788Z,101971.98
2018-01-15T04:02:32.308Z,101968.32
2018-01-15T04:04:59.987Z,101966.50
2018-01-15T04:07:27.527Z,101969.77
2018-01-15T04:09:55.040Z,101964.09
2018-01-15T04:12:22.563Z,101964.73
2018-01-15T04:14:50.076Z,101949.86
2018-01-15T04:17:17.608Z,101950.19
2018-01-15T04:19:45.124Z,101948.59
2018-01-15T04:22:12.646Z,101949.91
2018-01-15T04:24:40.188Z,101947.30
2018-01-15T04:27:07.761Z,101943.35
2018-01-15T04:29:35.239Z,101926.72
2018-01-15T04:32:02.795Z,101928.37
2018-01-15T04:34:30.383Z,101914.86
2018-01-15T04:36:57.916Z,101915.16
2018-01-15T04:39:25.439Z,101917.31
2018-01-15T04:41:53.064Z,101907.30
2018-01-15T04:44:20.576Z,101896.89
2018-01-15T04:46:48.096Z,101896.44
2018-01-15T04:49:15.617Z,101892.08
2018-01-15T04:51:43.200Z,101889.98
2018-01-15T04:54:10.728Z,101882.84
2018-01-15T04:56:38.331Z,101879.46
2018-01-15T04:59:05.861Z,101887.42
2018-01-15T05:01:33.379Z,101874.45
2018-01-15T05:04:00.888Z,101879.55
2018-01-15T05:06:28.409Z,101881.38
2018-01-15T05:08:56.076Z,101873.51
2018-01-15T05:11:23.688Z,101870.67
2018-01-15T05:13:51.252Z,101869.30
2018-01-15T05:16:18.772Z,101868.47
2018-01-15T05:18:46.363Z,101861.98
2018-01-15T05:21:13.967Z,101861.59
2018-01-15T05:23:41.483Z,101859.30
2018-01-15T05:26:09.008Z,101859.46
2018-01-15T05:28:36.537Z,101849.64
2018-01-15T05:31:04.060Z,101840.08
2018-01-15T05:33:31.590Z,101834.48
2018-01-15T05:35:59.158Z,101831.83
2018-01-15T05:38:26.664Z,101845.09
2018-01-15T05:40:54.176Z,101837.95
2018-01-15T05:43:21.724Z,101842.83
2018-01-15T05:45:49.252Z,101838.67
2018-01-15T05:48:16.856Z,101829.27
2018-01-15T05:50:44.372Z,101831.38
2018-01-15T05:53:11.881Z,101835.78
2018-01-15T05:55:39.419Z,101830.52
2018-01-15T05:58:07.031Z,101821.31
2018-01-15T06:00:34.544Z,101820.50
2018-01-15T06:03:02.138Z,101809.45
2018-01-15T06:05:29.697Z,101819.56
2018-01-15T06:07:57.220Z,101813.95
2018-01-15T06:10:24.732Z,101808.77
2018-01-15T06:12:52.243Z,101813.56
2018-01-15T06:15:19.833Z,101805.69
2018-01-15T06:17:47.353Z,101802.17
2018-01-15T06:20:14.951Z,101803.56
2018-01-15T06:22:42.459Z,101795.22
2018-01-15T06:25:09.982Z,101792.95
2018-01-15T06:27:37.542Z,101793.39
2018-01-15T06:30:05.062Z,101791.26
2018-01-15T06:32:32.604Z,101786.83
2018-01-15T06:35:00.212Z,101775.74
2018-01-15T06:37:27.740Z,101786.20
2018-01-15T06:39:55.564Z,101787.07
2018-01-15T06:42:23.080Z,101776.88
2018-01-15T06:44:50.608Z,101777.34
2018-01-15T06:47:18.119Z,101776.81
2018-01-15T06:49:45.632Z,101776.83
2018-01-15T06:52:13.252Z,101766.66
2018-01-15T06:54:40.800Z,101765.34
2018-01-15T06:57:08.313Z,101763.14
2018-01-15T06:59:35.926Z,101765.23
2018-01-15T07:02:03.478Z,101763.86
2018-01-15T07:04:30.992Z,101770.78
2018-01-15T07:06:58.596Z,101760.30
2018-01-15T07:09:26.124Z,101755.80
2018-01-15T07:11:53.727Z,101747.95
2018-01-15T07:14:21.256Z,101744.83
2018-01-15T07:16:48.840Z,101748.25
2018-01-15T07:19:16.395Z,101735.13
2018-01-15T07:21:43.913Z,101742.59
2018-01-15T07:24:11.464Z,101739.81
2018-01-15T07:26:38.976Z,101750.33
2018-01-15T07:29:06.509Z,101727.45
2018-01-15T07:31:34.113Z,101728.41
2018-01-15T07:34:01.624Z,101736.21
2018-01-15T07:36:29.154Z,101726.93
2018-01-15T07:38:56.674Z,101735.59
2018-01-15T07:41:24.205Z,101727.86
2018-01-15T07:43:51.729Z,101727.80
2018-01-15T07:46:19.249Z,101726.10
2018-01-15T07:48:46.813Z,101722.02
2018-01-15T07:51:14.328Z,101722.09
2018-01-15T07:53:41.940Z,101723.49
2018-01-15T07:56:09.468Z,101720.80
2018-01-15T07:58:37.061Z,101699.73
2018-01-15T08:01:04.576Z,101699.44
2018-01-15T08:03:32.096Z,101696.84
2018-01-15T08:05:59.633Z,101703.03
2018-01-15T08:08:27.144Z,101686.47
2018-01-15T08:10:54.748Z,101692.78
2018-01-15T08:13:22.318Z,101681.39
2018-01-15T08:15:49.824Z,101673.47
2018-01-15T08:18:17.429Z,101678.33
2018-01-15T08:20:45.013Z,101673.59
2018-01-15T08:23:12.599Z,101681.39
2018-01-15T08:25:40.097Z,101663.27
2018-01-15T08:28:07.612Z,101657.80
2018-01-15T08:30:35.237Z,101649.33
2018-01-15T08:33:02.764Z,101646.33
2018-01-15T08:35:30.358Z,101637.93
2018-01-15T08:37:57.905Z,101632.70
2018-01-15T08:40:25.414Z,101633.47
2018-01-15T08:42:52.946Z,101622.20
2018-01-15T08:45:20.472Z,101625.03
2018-01-15T08:47:47.997Z,101623.48
2018-01-15T08:50:15.531Z,101627.94
2018-01-15T08:52:43.063Z,101617.95
2018-01-15T08:55:10.577Z,101614.34
2018-01-15T08:57:38.108Z,101605.66
2018-01-15T09:00:05.624Z,101612.09
2018-01-15T09:02:33.151Z,101608.69
2018-01-15T09:05:00.674Z,101603.98
2018-01-15T09:07:28.210Z,101600.56
2018-01-15T09:09:55.721Z,101591.80
2018-01-15T09:12:23.252Z,101595.05
2018-01-15T09:14:50.784Z,101590.61
2018-01-15T09:17:18.370Z,101589.24
2018-01-15T09:19:45.930Z,101578.64
2018-01-15T09:22:13.442Z,101573.32
2018-01-15T09:24:40.967Z,101577.89
2018-01-15T09:27:08.478Z,101574.00
2018-01-15T09:29:36.017Z,101574.67
2018-01-15T09:32:03.583Z,101558.72
2018-01-15T09:34:31.160Z,101557.14
2018-01-15T09:36:58.676Z,101554.08
2018-01-15T09:39:26.192Z,101549.34
2018-01-15T09:41:53.701Z,101538.80
2018-01-15T09:44:21.219Z,101544.13
2018-01-15T09:46:48.733Z,101537.14
2018-01-15T09:49:16.287Z,101533.17
2018-01-15T09:51:43.795Z,101523.38
2018-01-15T09:54:11.344Z,101517.31
2018-01-15T09:56:38.852Z,101512.90
2018-01-15T09:59:06.374Z,101505.41
2018-01-15T10:01:33.906Z,101504.07
2018-01-15T10:04:01.432Z,101487.30
2018-01-15T10:06:28.940Z,101486.41
2018-01-15T10:08:56.450Z,101481.11
2018-01-15T10:11:24.070Z,101480.68
2018-01-15T10:13:51.630Z,101466.09
2018-01-15T10:16:19.293Z,101456.34
2018-01-15T10:18:46.820Z,101450.60
2018-01-15T10:21:14.341Z,101448.89
2018-01-15T10:23:41.870Z,101449.30
2018-01-15T10:26:09.430Z,101436.05
2018-01-15T10:28:36.997Z,101433.37
2018-01-15T10:31:04.520Z,101429.86
2018-01-15T10:33:32.081Z,101420.61
2018-01-15T10:35:59.667Z,101412.16
2018-01-15T10:38:27.184Z,101415.75
2018-01-15T10:40:54.715Z,101411.78
2018-01-15T10:43:22.243Z,101393.64
2018-01-15T10:45:49.802Z,101392.35
2018-01-15T10:48:17.360Z,101393.70
2018-01-15T10:50:44.871Z,101387.97
2018-01-15T10:53:12.495Z,101380.02
2018-01-15T10:55:40.009Z,101361.91
2018-01-15T10:58:07.527Z,101353.06
2018-01-15T11:00:40.776Z,101341.17
2018-01-15T11:03:08.284Z,101323.45
2018-01-15T11:05:35.807Z,101329.63
2018-01-15T11:08:03.319Z,101313.77
2018-01-15T11:10:30.928Z,101320.82
2018-01-15T11:12:58.497Z,101311.10
2018-01-15T11:15:26.026Z,101304.87
2018-01-15T11:17:53.608Z,101308.86
2018-01-15T11:20:21.148Z,101294.34
2018-01-15T11:22:48.694Z,101296.03
2018-01-15T11:25:16.253Z,101292.94
2018-01-15T11:27:43.769Z,101292.02
2018-01-15T11:30:11.275Z,101278.73
2018-01-15T11:32:38.808Z,101271.73
2018-01-15T11:35:06.424Z,101262.88
2018-01-15T11:37:33.940Z,101248.22
2018-01-15T11:40:01.444Z,101238.87
2018-01-15T11:42:29.012Z,101244.68
2018-01-15T11:44:56.525Z,101230.98
2018-01-15T11:47:24.037Z,101248.66
2018-01-15T11:49:51.580Z,101226.11
2018-01-15T11:52:19.110Z,101236.69
2018-01-15T11:54:46.640Z,101216.82
2018-01-15T11:57:14.157Z,101210.18
2018-01-15T11:59:41.672Z,101201.77
2018-01-15T12:02:09.280Z,101191.61
2018-01-15T12:04:36.804Z,101193.80
2018-01-15T12:07:04.399Z,101178.34
2018-01-15T12:09:31.909Z,101170.34
2018-01-15T12:11:59.429Z,101155.73
2018-01-15T12:14:26.946Z,101156.22
2018-01-15T12:16:54.549Z,101146.56
2018-01-15T12:19:22.120Z,101129.69
2018-01-15T12:21:49.665Z,101127.92
2018-01-15T12:24:17.184Z,101124.41
2018-01-15T12:26:44.736Z,101122.64
2018-01-15T12:29:12.368Z,101123.88
2018-01-15T12:31:40.013Z,101110.70
2018-01-15T12:34:07.568Z,101121.28
2018-01-15T12:36:35.080Z,101097.91
2018-01-15T12:39:03.413Z,101091.70
2018-01-15T12:41:30.970Z,101082.45
2018-01-15T12:43:58.491Z,101082.34
2018-01-15T12:46:26.028Z,101078.31
2018-01-15T12:48:53.668Z,101060.13
2018-01-15T12:51:21.312Z,101064.98
2018-01-15T12:53:48.842Z,101064.86
2018-01-15T12:56:16.426Z,101052.00
2018-01-15T12:58:43.991Z,101038.91
2018-01-15T13:01:11.536Z,101034.30
2018-01-15T13:03:39.065Z,101017.48
2018-01-15T13:06:07.431Z,101010.43
2018-01-15T13:11:44.281Z,101020.23
2018-01-15T13:14:11.795Z,101023.27
2018-01-15T13:16:39.304Z,101021.52
2018-01-15T13:19:06.884Z,101020.17
2018-01-15T13:21:34.396Z,101012.81
2018-01-15T13:24:01.906Z,101009.22
2018-01-15T13:26:29.429Z,101007.91
2018-01-15T13:28:56.941Z,101001.64
2018-01-15T13:31:24.447Z,100997.27
2018-01-15T13:33:51.959Z,100992.41
2018-01-15T13:36:19.472Z,100986.25
2018-01-15T13:38:46.989Z,100976.56
2018-01-15T13:41:14.593Z,100968.11
2018-01-15T13:43:42.159Z,100978.75
2018-01-15T13:46:09.682Z,100957.92
2018-01-15T13:48:37.213Z,100963.19
2018-01-15T13:51:04.724Z,100954.36
2018-01-15T13:53:32.244Z,100956.64
2018-01-15T13:55:59.779Z,100950.36
2018-01-15T13:58:27.297Z,100938.49
2018-01-15T14:00:54.859Z,100931.48
2018-01-15T14:03:22.420Z,100935.03
2018-01-15T14:05:49.980Z,100930.66
2018-01-15T14:08:17.540Z,100933.41
2018-01-15T14:10:45.101Z,100923.73
2018-01-15T14:13:12.614Z,100923.34
2018-01-15T14:15:40.221Z,100918.48
2018-01-15T14:18:07.780Z,100905.25
2018-01-15T14:20:35.354Z,100903.48
2018-01-15T14:23:02.908Z,100895.98
2018-01-15T14:25:30.461Z,100890.70
2018-01-15T14:27:57.993Z,100883.25
2018-01-15T14:30:25.520Z,100876.26
2018-01-15T14:32:53.031Z,100859.94
2018-01-15T14:35:20.540Z,100858.67
2018-01-15T14:37:48.156Z,100855.13
2018-01-15T14:40:15.680Z,100860.84
2018-01-15T14:42:43.280Z,100848.47
2018-01-15T14:45:10.808Z,100842.77
2018-01-15T14:47:38.406Z,100839.33
2018-01-15T14:50:05.956Z,100836.28
2018-01-15T14:52:33.486Z,100824.83
2018-01-15T14:55:01.077Z,100815.56
2018-01-15T14:57:28.636Z,100817.32
2018-01-15T14:59:56.200Z,100816.92
2018-01-15T15:02:23.722Z,100801.45
2018-01-15T15:04:51.285Z,100798.45
2018-01-15T15:07:18.812Z,100794.88
2018-01-15T15:09:46.437Z,100775.95
2018-01-15T15:12:13.964Z,100771.56
2018-01-15T15:14:41.492Z,100760.09
2018-01-15T15:17:09.013Z,100758.79
2018-01-15T15:19:36.524Z,100760.98
2018-01-15T15:22:04.033Z,100759.67
2018-01-15T15:24:31.594Z,100750.50
2018-01-15T15:26:59.128Z,100741.23
2018-01-15T15:29:26.712Z,100729.78
2018-01-15T15:31:54.272Z,100721.40
2018-01-15T15:34:21.784Z,100719.59
2018-01-15T15:36:49.375Z,100706.39
2018-01-15T15:39:16.893Z,100713.51
2018-01-15T15:41:44.420Z,100703.81
2018-01-15T15:44:11.968Z,100690.61
2018-01-15T15:46:39.475Z,100687.11
2018-01-15T15:49:06.988Z,100670.82
2018-01-15T15:51:34.501Z,100667.70
2018-01-15T15:54:02.053Z,100666.91
2018-01-15T15:56:29.564Z,100661.15
2018-01-15T15:58:57.243Z,100643.53
2018-01-15T16:01:24.784Z,100642.22
2018-01-15T16:03:52.344Z,100643.14
2018-01-15T16:06:19.923Z,100634.33
2018-01-15T16:08:47.445Z,100620.23
2018-01-15T16:11:15.031Z,100617.13
2018-01-15T16:13:42.555Z,100613.13
2018-01-15T16:16:10.077Z,100623.34
2018-01-15T16:18:37.592Z,100604.82
2018-01-15T16:21:05.112Z,100586.75
2018-01-15T16:23:32.639Z,100590.73
2018-01-15T16:26:00.169Z,100588.09
2018-01-15T16:28:27.699Z,100586.38
2018-01-15T16:30:55.221Z,100583.25
2018-01-15T16:33:22.757Z,100576.73
2018-01-15T16:35:50.276Z,100571.39
2018-01-15T16:38:17.881Z,100573.64
2018-01-15T16:40:45.459Z,100559.11
2018-01-15T16:43:13.005Z,100549.83
2018-01-15T16:45:40.574Z,100559.13
2018-01-15T16:48:08.101Z,100550.33
2018-01-15T16:50:35.661Z,100540.20
2018-01-15T16:53:03.185Z,100538.05
2018-01-15T16:55:30.699Z,100522.14
2018-01-15T16:57:58.269Z,100521.28
2018-01-15T17:00:25.797Z,100514.19
2018-01-15T17:02:53.312Z,100521.25
2018-01-15T17:05:20.938Z,100516.84
2018-01-15T17:07:48.478Z,100514.59
2018-01-15T17:10:15.992Z,100502.67
2018-01-15T17:12:43.500Z,100512.76
2018-01-15T17:15:11.044Z,100495.96
2018-01-15T17:17:38.632Z,100493.30
2018-01-15T17:20:06.220Z,100487.60
2018-01-15T17:22:33.761Z,100476.14
2018-01-15T17:25:01.330Z,100466.88
2018-01-15T17:27:28.852Z,100465.56
2018-01-15T17:29:56.437Z,100464.22
2018-01-15T17:32:23.943Z,100443.08
2018-01-15T17:34:51.610Z,100437.77
2018-01-15T17:37:19.106Z,100433.82
2018-01-15T17:39:46.623Z,100429.38
2018-01-15T17:42:14.156Z,100422.34
2018-01-15T17:44:41.675Z,100421.95
2018-01-15T17:47:09.187Z,100419.27
2018-01-15T17:49:36.692Z,100417.92
2018-01-15T17:52:04.216Z,100418.41
2018-01-15T17:54:31.742Z,100415.73
2018-01-15T17:56:59.257Z,100398.97
2018-01-15T17:59:26.794Z,100399.42
2018-01-15T18:01:54.315Z,100381.77
2018-01-15T18:04:21.884Z,100395.03
2018-01-15T18:06:49.392Z,100380.89
2018-01-15T18:09:17.006Z,100377.81
2018-01-15T18:11:44.532Z,100375.15
2018-01-15T18:14:12.048Z,100371.17
2018-01-15T18:16:39.679Z,100365.41
2018-01-15T18:19:07.221Z,100374.73
2018-01-15T18:21:34.744Z,100353.48
2018-01-15T18:24:02.256Z,100361.46
2018-01-15T18:26:29.831Z,100360.50
2018-01-15T18:28:57.375Z,100355.75
2018-01-15T18:31:24.936Z,100353.55
2018-01-15T18:33:52.456Z,100342.92
2018-01-15T18:36:19.988Z,100332.80
2018-01-15T18:38:47.521Z,100333.70
2018-01-15T18:41:15.027Z,100338.14
2018-01-15T18:43:42.636Z,100322.78
2018-01-15T18:46:10.148Z,100309.15
2018-01-15T18:48:37.682Z,100310.45
2018-01-15T18:51:05.321Z,100303.36
2018-01-15T18:53:32.831Z,100300.70
2018-01-15T18:56:00.358Z,100307.81
2018-01-15T18:58:27.981Z,100288.34
2018-01-15T19:00:55.509Z,100281.72
2018-01-15T19:03:23.062Z,100264.61
2018-01-15T19:05:50.603Z,100267.63
2018-01-15T19:08:18.161Z,100268.50
2018-01-15T19:10:45.794Z,100269.89
2018-01-15T19:13:13.320Z,100273.84
2018-01-15T19:15:40.860Z,100259.31
2018-01-15T19:18:08.472Z,100243.44
2018-01-15T19:20:36.001Z,100248.28
2018-01-15T19:23:03.549Z,100242.12
2018-01-15T19:25:31.085Z,100219.67
2018-01-15T19:27:58.611Z,100216.61
2018-01-15T19:30:26.130Z,100200.27
2018-01-15T19:32:53.657Z,100186.21
2018-01-15T19:35:22.008Z,100175.22
2018-01-15T19:37:49.544Z,100172.59
2018-01-15T19:40:17.068Z,100161.64
2018-01-15T19:42:44.585Z,100150.66
2018-01-15T19:45:17.877Z,100148.06
2018-01-15T19:47:50.944Z,100141.06
2018-01-15T19:50:24.104Z,100134.94
2018-01-15T19:52:57.342Z,100139.39
2018-01-15T19:55:30.743Z,100103.69
2018-01-15T19:58:03.756Z,100105.44
2018-01-15T20:00:36.834Z,100103.25
2018-01-15T20:03:10.119Z,100099.24
2018-01-15T20:05:43.173Z,100087.75
2018-01-15T20:08:16.369Z,100082.44
2018-01-15T20:10:47.025Z,100075.38
2018-01-15T20:13:14.532Z,100071.84
2018-01-15T20:15:42.059Z,100063.89
2018-01-15T20:18:09.579Z,100056.78
2018-01-15T20:20:37.129Z,100036.52
2018-01-15T21:45:01.704Z,99798.61
2018-01-15T21:47:29.208Z,99795.48
2018-01-15T21:49:56.718Z,99788.29
2018-01-15T21:52:24.277Z,99780.00
2018-01-15T21:54:51.873Z,99763.61
2018-01-15T21:57:19.461Z,99764.55
2018-01-15T21:59:47.005Z,99775.61
2018-01-15T22:02:14.564Z,99768.14
2018-01-15T22:04:42.077Z,99749.67
2018-01-15T22:07:09.770Z,99758.45
2018-01-15T22:09:37.283Z,99763.25
2018-01-15T22:12:04.808Z,99753.22
2018-01-15T22:14:32.366Z,99746.20
2018-01-15T22:16:59.910Z,99744.88
2018-01-15T22:19:27.571Z,99745.75
2018-01-15T22:21:55.127Z,99723.27
2018-01-15T22:24:22.682Z,99726.28
2018-01-15T22:26:50.215Z,99715.69
2018-01-15T22:29:17.796Z,99714.77
2018-01-15T22:31:45.348Z,99694.63
2018-01-15T22:34:12.857Z,99690.17
2018-01-15T22:36:40.370Z,99694.72
2018-01-15T22:39:07.932Z,99679.33
2018-01-15T22:41:35.457Z,99686.50
2018-01-15T22:44:02.972Z,99661.38
2018-01-15T22:46:30.477Z,99654.41
2018-01-15T22:48:57.996Z,99646.52
2018-01-15T22:51:25.524Z,99638.05
2018-01-15T22:53:53.033Z,99624.42
2018-01-15T22:56:20.660Z,99611.58
2018-01-15T22:58:48.233Z,99612.39
2018-01-15T23:01:15.739Z,99608.81
2018-01-15T23:03:43.265Z,99602.30
2018-01-15T23:06:10.846Z,99582.46
2018-01-15T23:08:38.431Z,99593.88
2018-01-15T23:11:06.018Z,99567.43
2018-01-15T23:13:33.583Z,99570.45
2018-01-15T23:16:01.149Z,99572.64
2018-01-15T23:18:28.665Z,99554.10
2018-01-15T23:20:56.181Z,99566.92
2018-01-15T23:23:23.827Z,99539.03
2018-01-15T23:25:51.376Z,99528.86
2018-01-15T23:28:18.900Z,99528.21
2018-01-15T23:30:46.496Z,99529.33
2018-01-15T23:33:14.017Z,99531.53
2018-01-15T23:35:41.529Z,99499.39
2018-01-15T23:38:09.037Z,99514.91
2018-01-15T23:40:36.548Z,99494.59
2018-01-15T23:43:04.062Z,99477.97
2018-01-15T23:45:31.613Z,99491.70
2018-01-15T23:47:59.125Z,99489.46
2018-01-15T23:50:26.633Z,99469.73
2018-01-15T23:52:54.219Z,99463.61
2018-01-15T23:55:21.728Z,99475.63
2018-01-15T23:57:49.237Z,99450.45
